Time;durP1;ratioP1;P1;durP2;ratioP2;P2;SDS_P1;SDS_P2;PMS_P1;PMS_P2;Temp;Humidity;BMP_temperature;BMP_pressure;BME280_temperature;BME280_humidity;BME280_pressure;Samples;Min_cycle;Max_cycle;Signal;HPM_P1;HPM_P2
2022/06/07 00:00:28;;;;;;;4.15;1.60;;;15.30;99.90;;;;;;5012564;28;20966;-77
2022/06/07 00:02:54;;;;;;;2.83;1.50;;;15.30;99.90;;;;;;5005540;28;20030;-77
2022/06/07 00:05:19;;;;;;;1.52;1.30;;;15.30;99.90;;;;;;5009136;28;20380;-77
2022/06/07 00:07:45;;;;;;;2.53;1.55;;;15.20;99.90;;;;;;5004811;28;20097;-77
2022/06/07 00:10:11;;;;;;;3.15;1.40;;;15.30;99.90;;;;;;5008024;28;20680;-77
2022/06/07 00:12:36;;;;;;;3.55;1.30;;;15.30;99.90;;;;;;4999225;28;20049;-77
2022/06/07 00:15:02;;;;;;;2.50;1.92;;;15.20;99.90;;;;;;5009018;28;20553;-77
2022/06/07 00:17:27;;;;;;;2.10;1.20;;;15.20;99.90;;;;;;5005108;28;20030;-77
2022/06/07 00:19:53;;;;;;;2.80;1.45;;;15.20;99.90;;;;;;5011407;28;20838;-77
2022/06/07 00:22:18;;;;;;;1.40;1.02;;;15.10;99.90;;;;;;5005860;28;20026;-77
2022/06/07 00:24:45;;;;;;;1.88;1.65;;;15.10;99.90;;;;;;5002978;28;20073;-77
2022/06/07 00:27:10;;;;;;;2.45;1.60;;;15.10;99.90;;;;;;5007634;28;20034;-76
2022/06/07 00:29:37;;;;;;;2.13;1.50;;;15.10;99.90;;;;;;5008478;28;20578;-77
2022/06/07 00:32:05;;;;;;;2.65;2.17;;;15.10;99.90;;;;;;5007105;28;20052;-77
2022/06/07 00:34:30;;;;;;;2.58;1.65;;;15.00;99.90;;;;;;5003883;28;20081;-77
2022/06/07 00:36:56;;;;;;;1.98;1.20;;;15.10;99.90;;;;;;5006854;28;20748;-77
2022/06/07 00:39:21;;;;;;;3.05;2.05;;;15.00;99.90;;;;;;5013926;28;20030;-77
2022/06/07 00:41:47;;;;;;;3.65;1.63;;;15.00;99.90;;;;;;5008279;28;20045;-77
2022/06/07 00:44:30;;;;;;;1.45;1.25;;;15.00;99.90;;;;;;5008643;28;20089;-77
2022/06/07 00:47:00;;;;;;;3.13;1.67;;;15.10;99.90;;;;;;5005148;28;20132;-77
2022/06/07 00:49:29;;;;;;;1.67;1.50;;;15.10;99.90;;;;;;5005987;28;20022;-77
2022/06/07 00:51:55;;;;;;;1.48;1.25;;;15.00;99.90;;;;;;5005006;28;20029;-77
2022/06/07 00:54:26;;;;;;;1.67;1.17;;;15.00;99.90;;;;;;5004079;28;20788;-77
2022/06/07 00:56:51;;;;;;;2.90;1.70;;;15.00;99.90;;;;;;4983885;28;20034;-77
2022/06/07 00:59:17;;;;;;;1.65;1.38;;;14.90;99.90;;;;;;4991759;28;20049;-77
2022/06/07 01:01:43;;;;;;;2.40;1.50;;;14.90;99.90;;;;;;4975382;28;20071;-77
2022/06/07 01:04:09;;;;;;;2.33;1.48;;;14.90;99.90;;;;;;4991494;28;20453;-77
2022/06/07 01:12:04;;;;;;;1.85;1.45;;;14.90;99.90;;;;;;4990828;28;21152;-77
2022/06/07 01:14:29;;;;;;;1.98;1.50;;;14.90;99.90;;;;;;4982012;28;20034;-77
2022/06/07 01:16:55;;;;;;;3.42;1.83;;;15.00;99.90;;;;;;4987636;28;20038;-76
2022/06/07 01:19:20;;;;;;;3.60;1.83;;;15.00;99.90;;;;;;4992705;28;20023;-76
2022/06/07 01:21:46;;;;;;;1.65;1.48;;;15.00;99.90;;;;;;4990381;28;20034;-77
2022/06/07 01:24:14;;;;;;;3.17;1.42;;;15.00;99.90;;;;;;4985828;28;20038;-76
2022/06/07 01:26:40;;;;;;;1.92;1.25;;;14.90;99.90;;;;;;4986449;28;20027;-77
2022/06/07 01:29:05;;;;;;;1.65;1.40;;;14.90;99.90;;;;;;4990970;28;20104;-77
2022/06/07 01:31:31;;;;;;;2.10;1.23;;;14.80;99.90;;;;;;4992882;28;20034;-76
2022/06/07 01:33:57;;;;;;;2.55;1.80;;;14.80;99.90;;;;;;4988778;28;20046;-77
2022/06/07 01:36:23;;;;;;;1.90;1.35;;;14.70;99.90;;;;;;4991216;28;20041;-77
2022/06/07 01:44:17;;;;;;;1.80;1.65;;;14.70;99.90;;;;;;4988758;28;20105;-76
2022/06/07 01:46:42;;;;;;;1.23;0.95;;;14.60;99.90;;;;;;4988878;28;20038;-76
2022/06/07 01:49:08;;;;;;;2.33;1.77;;;14.60;99.90;;;;;;4985406;28;20030;-76
2022/06/07 01:51:34;;;;;;;1.35;1.13;;;14.70;99.90;;;;;;4992702;28;20034;-77
2022/06/07 01:53:59;;;;;;;2.28;1.73;;;14.60;99.90;;;;;;4991219;28;20026;-77
2022/06/07 01:56:24;;;;;;;1.70;1.42;;;14.60;99.90;;;;;;5004492;28;20088;-77
2022/06/07 01:58:50;;;;;;;4.13;1.27;;;14.60;99.90;;;;;;5011101;28;20084;-77
2022/06/07 02:01:16;;;;;;;1.55;1.08;;;14.60;99.90;;;;;;5009738;28;20084;-76
2022/06/07 02:03:41;;;;;;;3.72;1.70;;;14.60;99.90;;;;;;5011732;28;20392;-76
2022/06/07 02:06:11;;;;;;;3.63;1.92;;;14.60;99.90;;;;;;5010911;28;20388;-76
2022/06/07 02:08:37;;;;;;;1.83;1.15;;;14.60;99.90;;;;;;5009142;28;20029;-77
2022/06/07 02:11:08;;;;;;;3.15;1.48;;;14.60;99.90;;;;;;5010160;28;20030;-77
2022/06/07 02:13:35;;;;;;;2.55;1.67;;;14.60;99.90;;;;;;5007406;28;20392;-76
2022/06/07 02:16:01;;;;;;;4.43;2.17;;;14.60;99.90;;;;;;5009403;28;20145;-77
2022/06/07 02:18:27;;;;;;;2.58;1.70;;;14.60;99.90;;;;;;5009384;28;20596;-77
2022/06/07 02:20:54;;;;;;;2.28;1.70;;;14.50;99.90;;;;;;5012047;28;20117;-77
2022/06/07 02:23:21;;;;;;;2.13;1.40;;;14.50;99.90;;;;;;5009223;28;20061;-76
2022/06/07 02:25:51;;;;;;;4.35;1.70;;;14.50;99.90;;;;;;5010998;28;20025;-77
2022/06/07 02:28:18;;;;;;;2.47;1.77;;;14.50;99.90;;;;;;5011147;28;20033;-77
2022/06/07 02:30:44;;;;;;;3.25;1.55;;;14.50;99.90;;;;;;5010547;28;20867;-77
2022/06/07 02:33:11;;;;;;;2.90;1.77;;;14.50;99.90;;;;;;5008896;28;20049;-77
2022/06/07 02:35:39;;;;;;;1.77;1.52;;;14.50;99.90;;;;;;5006274;28;20116;-76
2022/06/07 02:38:06;;;;;;;2.88;1.52;;;14.40;99.90;;;;;;5010907;28;20026;-76
2022/06/07 02:40:32;;;;;;;2.35;1.63;;;14.40;99.90;;;;;;5009540;28;20034;-77
2022/06/07 02:42:57;;;;;;;2.08;1.55;;;14.40;99.90;;;;;;5009524;28;20429;-76
2022/06/07 02:45:23;;;;;;;2.22;1.40;;;14.40;99.90;;;;;;5009028;28;20366;-77
2022/06/07 02:47:49;;;;;;;2.28;2.05;;;14.40;99.90;;;;;;5007541;28;20049;-77
2022/06/07 02:50:14;;;;;;;2.00;1.55;;;14.50;99.90;;;;;;5009495;28;20062;-77
2022/06/07 02:52:39;;;;;;;2.92;1.75;;;14.50;99.90;;;;;;5008473;28;20032;-76
2022/06/07 02:55:06;;;;;;;2.00;1.38;;;14.50;99.90;;;;;;5010330;28;20058;-77
2022/06/07 02:57:31;;;;;;;2.63;1.80;;;14.50;99.90;;;;;;5009818;28;20038;-77
2022/06/07 02:59:56;;;;;;;2.50;1.45;;;14.50;99.90;;;;;;4998886;28;20052;-77
2022/06/07 03:02:22;;;;;;;2.90;1.92;;;14.40;99.90;;;;;;5004651;28;20455;-77
2022/06/07 03:04:47;;;;;;;1.95;1.40;;;14.40;99.90;;;;;;5008281;28;20049;-77
2022/06/07 03:07:13;;;;;;;1.00;1.00;;;14.40;99.90;;;;;;5002374;28;20038;-77
2022/06/07 03:09:39;;;;;;;3.13;1.77;;;14.40;99.90;;;;;;5009968;28;20029;-77
2022/06/07 03:12:05;;;;;;;1.90;1.30;;;14.40;99.90;;;;;;5006302;28;20507;-77
2022/06/07 03:14:30;;;;;;;1.17;1.08;;;14.30;99.90;;;;;;5008867;28;20034;-77
2022/06/07 03:16:56;;;;;;;2.33;1.50;;;14.30;99.90;;;;;;5009290;28;20117;-77
2022/06/07 03:19:21;;;;;;;3.28;1.63;;;14.30;99.90;;;;;;5007555;28;20060;-77
2022/06/07 03:21:47;;;;;;;1.95;1.40;;;14.30;99.90;;;;;;5008010;28;20029;-77
2022/06/07 03:24:13;;;;;;;2.08;1.58;;;14.30;99.90;;;;;;5007766;28;20031;-76
2022/06/07 03:26:38;;;;;;;2.53;1.33;;;14.30;99.90;;;;;;5008616;28;20725;-77
2022/06/07 03:29:04;;;;;;;2.40;1.13;;;14.40;99.90;;;;;;5006837;28;20113;-77
2022/06/07 03:31:29;;;;;;;7.63;1.63;;;14.40;99.90;;;;;;5009459;28;20441;-77
2022/06/07 03:33:55;;;;;;;1.33;1.23;;;14.40;99.90;;;;;;5004826;28;20080;-77
2022/06/07 03:36:27;;;;;;;1.92;1.70;;;14.40;99.90;;;;;;5007240;28;20485;-76
2022/06/07 03:38:55;;;;;;;2.25;1.60;;;14.40;99.90;;;;;;5001499;28;20106;-76
2022/06/07 03:41:23;;;;;;;2.08;1.58;;;14.40;99.90;;;;;;5006820;28;20942;-76
2022/06/07 03:43:49;;;;;;;1.77;1.67;;;14.40;99.90;;;;;;5003471;28;20026;-76
2022/06/07 03:46:22;;;;;;;1.45;1.35;;;14.40;99.90;;;;;;5001200;28;20104;-76
2022/06/07 03:48:48;;;;;;;2.13;1.40;;;14.40;99.90;;;;;;5000319;28;20036;-76
2022/06/07 03:51:15;;;;;;;1.58;1.42;;;14.40;99.90;;;;;;5004525;28;20104;-76
2022/06/07 03:53:42;;;;;;;3.25;2.10;;;14.50;99.90;;;;;;5009462;28;20512;-76
2022/06/07 03:56:08;;;;;;;2.65;1.58;;;14.40;99.90;;;;;;5007645;28;20068;-76
2022/06/07 03:58:34;;;;;;;1.60;1.50;;;14.40;99.90;;;;;;5007623;28;20141;-76
2022/06/07 04:01:01;;;;;;;4.80;1.45;;;14.40;99.90;;;;;;5011630;28;20029;-76
2022/06/07 04:03:28;;;;;;;1.95;1.42;;;14.50;99.90;;;;;;5006841;28;20488;-76
2022/06/07 04:05:54;;;;;;;4.97;1.50;;;14.60;99.90;;;;;;5007675;28;20033;-75
2022/06/07 04:08:19;;;;;;;1.45;1.10;;;14.80;99.90;;;;;;5011574;28;20560;-76
2022/06/07 04:10:49;;;;;;;1.77;1.13;;;14.80;99.90;;;;;;5008065;28;20028;-76
2022/06/07 04:13:16;;;;;;;3.10;1.30;;;15.00;99.90;;;;;;5005278;28;20034;-76
2022/06/07 04:15:42;;;;;;;1.27;1.17;;;15.10;99.90;;;;;;5006665;28;20038;-76
2022/06/07 04:18:08;;;;;;;1.48;1.02;;;15.10;99.90;;;;;;5006625;28;20200;-76
2022/06/07 04:20:35;;;;;;;2.35;1.42;;;15.10;99.90;;;;;;5011561;28;20109;-76
2022/06/07 04:23:00;;;;;;;1.27;1.10;;;15.20;99.90;;;;;;5010325;28;20117;-76
2022/06/07 04:25:27;;;;;;;2.45;1.52;;;15.20;99.90;;;;;;5006869;28;20672;-76
2022/06/07 04:27:53;;;;;;;2.47;1.15;;;15.30;99.90;;;;;;5000358;28;20049;-77
2022/06/07 04:30:19;;;;;;;1.80;1.05;;;15.30;99.90;;;;;;5008215;28;20057;-76
2022/06/07 04:32:46;;;;;;;0.90;0.90;;;15.30;99.90;;;;;;4999228;28;20401;-76
2022/06/07 04:35:13;;;;;;;1.60;1.15;;;15.40;99.90;;;;;;5007364;28;20037;-76
2022/06/07 04:37:38;;;;;;;0.85;0.82;;;15.40;99.90;;;;;;5004270;28;20369;-76
2022/06/07 04:40:05;;;;;;;1.85;1.08;;;15.40;99.90;;;;;;5010807;28;20048;-75
2022/06/07 04:42:30;;;;;;;1.15;1.00;;;15.50;99.90;;;;;;5007718;28;20038;-76
2022/06/07 04:44:55;;;;;;;1.45;1.20;;;15.50;99.90;;;;;;4989823;28;20087;-76
2022/06/07 04:47:21;;;;;;;1.40;1.30;;;15.50;99.90;;;;;;5006674;28;20029;-76
2022/06/07 04:49:46;;;;;;;1.45;1.05;;;15.50;99.90;;;;;;5003797;28;20532;-77
2022/06/07 04:52:12;;;;;;;1.20;0.90;;;15.50;99.90;;;;;;5005701;28;20049;-76
2022/06/07 04:54:37;;;;;;;2.38;1.17;;;15.60;99.90;;;;;;5008129;28;20046;-76
2022/06/07 04:57:03;;;;;;;1.55;1.23;;;15.50;99.90;;;;;;4997551;28;20037;-76
2022/06/07 04:59:29;;;;;;;1.42;1.20;;;15.60;99.90;;;;;;5007693;28;20029;-76
2022/06/07 05:01:54;;;;;;;1.20;1.05;;;15.50;99.90;;;;;;5010844;28;20036;-75
2022/06/07 05:04:20;;;;;;;1.38;1.10;;;15.60;99.90;;;;;;5008205;28;20053;-76
2022/06/07 05:06:46;;;;;;;0.63;0.63;;;15.70;99.90;;;;;;5005895;28;20025;-75
2022/06/07 05:09:24;;;;;;;2.83;1.20;;;15.70;99.90;;;;;;5006361;28;20492;-85
2022/06/07 05:11:51;;;;;;;1.17;0.93;;;15.80;99.90;;;;;;5007908;28;20021;-83
2022/06/07 05:14:18;;;;;;;0.70;0.70;;;15.90;99.90;;;;;;5007401;28;20092;-84
2022/06/07 05:16:43;;;;;;;2.00;1.05;;;15.90;99.90;;;;;;5007895;28;20030;-82
2022/06/07 05:19:10;;;;;;;4.13;0.90;;;15.90;99.90;;;;;;5011006;28;20041;-86
2022/06/07 05:21:37;;;;;;;1.33;0.98;;;16.00;99.90;;;;;;5010686;28;20027;-85
2022/06/07 05:24:03;;;;;;;1.00;0.73;;;16.10;99.90;;;;;;5007236;28;20172;-85
2022/06/07 05:26:49;;;;;;;0.95;0.88;;;16.10;99.90;;;;;;5008033;28;20101;-75
2022/06/07 05:29:21;;;;;;;2.17;1.50;;;16.20;99.90;;;;;;4989820;28;20034;-78
2022/06/07 05:31:47;;;;;;;2.10;1.02;;;16.20;99.90;;;;;;5007874;28;20026;-79
2022/06/07 05:34:12;;;;;;;1.45;1.15;;;16.20;99.90;;;;;;5010117;28;20063;-88
2022/06/07 05:36:38;;;;;;;0.80;0.80;;;16.30;99.90;;;;;;5010181;28;20029;-79
2022/06/07 05:39:04;;;;;;;1.13;1.00;;;16.30;99.90;;;;;;5008340;28;20076;-79
2022/06/07 05:41:29;;;;;;;1.88;1.33;;;16.30;99.90;;;;;;5006933;28;20041;-77
2022/06/07 05:44:06;;;;;;;1.65;0.80;;;16.40;99.90;;;;;;5009022;28;20461;-78
2022/06/07 05:46:32;;;;;;;1.15;0.73;;;16.50;99.90;;;;;;5008083;28;20107;-77
2022/06/07 05:48:58;;;;;;;0.70;0.70;;;16.60;99.90;;;;;;5012072;28;20109;-77
2022/06/07 05:51:23;;;;;;;0.57;0.57;;;16.60;99.90;;;;;;5012374;28;20595;-77
2022/06/07 05:53:53;;;;;;;0.68;0.57;;;16.70;99.90;;;;;;5011604;28;20026;-77
2022/06/07 05:56:18;;;;;;;0.80;0.70;;;16.80;99.90;;;;;;5009534;28;20052;-77
2022/06/07 05:58:44;;;;;;;0.90;0.80;;;16.80;99.90;;;;;;4995061;28;20045;-78
2022/06/07 06:01:09;;;;;;;0.70;0.70;;;16.90;99.90;;;;;;5013155;28;20508;-76
2022/06/07 06:03:36;;;;;;;1.23;0.80;;;16.90;99.90;;;;;;5010917;28;20033;-77
2022/06/07 06:06:01;;;;;;;0.60;0.60;;;17.00;99.90;;;;;;5009227;28;20077;-76
2022/06/07 06:11:15;;;;;;;2.03;0.70;;;17.20;99.90;;;;;;5000457;28;20041;-75
2022/06/07 06:13:41;;;;;;;0.95;0.52;;;17.20;99.90;;;;;;5008019;28;20025;-76
2022/06/07 06:16:10;;;;;;;0.82;0.60;;;17.40;98.80;;;;;;5010024;28;20036;-75
2022/06/07 06:18:36;;;;;;;2.63;0.60;;;17.60;98.50;;;;;;5012045;28;20053;-76
2022/06/07 06:21:02;;;;;;;1.08;0.95;;;17.80;98.50;;;;;;5011569;28;20030;-76
2022/06/07 06:23:27;;;;;;;0.75;0.75;;;18.00;97.60;;;;;;5015150;28;20038;-75
2022/06/07 06:25:53;;;;;;;0.70;0.70;;;18.10;95.10;;;;;;5004606;28;20036;-76
2022/06/07 06:28:19;;;;;;;0.70;0.70;;;18.20;95.90;;;;;;5010706;28;20389;-76
2022/06/07 06:30:46;;;;;;;0.52;0.50;;;18.30;96.80;;;;;;5011491;28;20026;-76
2022/06/07 06:33:14;;;;;;;1.13;0.90;;;18.40;95.70;;;;;;5008426;28;20082;-77
2022/06/07 06:35:51;;;;;;;0.80;0.80;;;18.70;94.40;;;;;;5008128;28;20806;-76
2022/06/07 06:38:17;;;;;;;1.73;1.02;;;18.90;91.40;;;;;;5003094;28;20133;-76
2022/06/07 06:40:45;;;;;;;0.60;0.60;;;19.20;91.20;;;;;;5008694;28;20249;-75
2022/06/07 06:43:11;;;;;;;1.00;0.60;;;19.40;91.00;;;;;;5008187;28;20485;-76
2022/06/07 06:45:36;;;;;;;1.10;1.00;;;19.40;88.50;;;;;;5010506;28;20030;-76
2022/06/07 06:48:02;;;;;;;0.57;0.50;;;19.40;86.30;;;;;;5010315;28;20069;-76
2022/06/07 06:50:28;;;;;;;0.70;0.70;;;19.40;85.40;;;;;;5011239;28;20030;-76
2022/06/07 06:52:53;;;;;;;0.60;0.52;;;19.40;86.50;;;;;;5010061;28;20432;-76
2022/06/07 06:55:19;;;;;;;0.50;0.50;;;19.50;85.80;;;;;;5009100;28;20575;-76
2022/06/07 06:57:44;;;;;;;0.68;0.65;;;19.40;83.50;;;;;;5009699;28;20536;-76
2022/06/07 07:00:11;;;;;;;2.05;0.70;;;19.30;83.10;;;;;;5010754;28;20034;-76
2022/06/07 07:02:36;;;;;;;1.00;0.80;;;19.40;83.00;;;;;;5006446;28;20034;-75
2022/06/07 07:05:02;;;;;;;0.60;0.60;;;19.60;83.40;;;;;;5011077;28;20041;-87
2022/06/07 07:07:27;;;;;;;0.75;0.60;;;19.90;83.90;;;;;;5009908;28;20504;-82
2022/06/07 07:09:56;;;;;;;1.25;0.70;;;20.00;82.10;;;;;;5010830;28;20022;-79
2022/06/07 07:12:21;;;;;;;0.70;0.70;;;20.20;81.80;;;;;;5008434;28;20057;-79
2022/06/07 07:14:48;;;;;;;0.60;0.60;;;20.40;84.10;;;;;;5010778;28;20050;-76
2022/06/07 07:17:14;;;;;;;0.82;0.70;;;20.40;79.00;;;;;;5007008;28;20046;-78
2022/06/07 07:19:39;;;;;;;1.30;1.05;;;20.30;77.50;;;;;;5009158;28;20034;-76
2022/06/07 07:22:05;;;;;;;1.63;0.77;;;20.10;76.80;;;;;;5008504;28;20037;-77
2022/06/07 07:24:32;;;;;;;0.77;0.60;;;19.80;78.10;;;;;;5008498;28;20053;-77
2022/06/07 07:26:58;;;;;;;0.80;0.75;;;19.70;78.90;;;;;;5009054;28;20053;-77
2022/06/07 07:29:24;;;;;;;1.00;0.70;;;19.60;79.50;;;;;;5009804;28;20026;-77
2022/06/07 07:31:50;;;;;;;0.93;0.60;;;19.40;80.70;;;;;;5008382;28;20080;-78
2022/06/07 07:34:17;;;;;;;0.70;0.70;;;19.30;82.10;;;;;;5010293;28;20650;-77
2022/06/07 07:36:46;;;;;;;0.77;0.60;;;19.30;81.10;;;;;;5003331;28;20033;-84
2022/06/07 07:39:11;;;;;;;0.70;0.70;;;19.30;83.30;;;;;;5010160;28;20487;-80
2022/06/07 07:41:38;;;;;;;0.90;0.80;;;19.30;82.10;;;;;;5007916;28;20057;-82
2022/06/07 07:44:09;;;;;;;0.60;0.60;;;19.40;82.50;;;;;;5010015;28;20503;-82
2022/06/07 07:46:36;;;;;;;1.73;0.77;;;19.40;78.30;;;;;;5010362;28;20034;-82
2022/06/07 07:49:04;;;;;;;1.65;0.90;;;19.40;81.90;;;;;;5005828;28;20025;-82
2022/06/07 07:51:35;;;;;;;3.33;0.52;;;19.40;78.00;;;;;;5005075;28;20555;-83
2022/06/07 07:54:03;;;;;;;2.28;1.20;;;19.40;81.00;;;;;;5019159;28;20531;-83
2022/06/07 07:56:29;;;;;;;0.65;0.65;;;19.60;84.80;;;;;;5008794;28;20564;-83
2022/06/07 07:58:56;;;;;;;1.40;0.68;;;19.70;75.30;;;;;;5011676;28;20032;-85
2022/06/07 08:01:24;;;;;;;0.40;0.40;;;19.90;74.50;;;;;;5003862;28;20048;-83
2022/06/07 08:03:51;;;;;;;0.60;0.60;;;20.20;73.40;;;;;;5005210;28;20034;-80
2022/06/07 08:06:19;;;;;;;0.70;0.70;;;20.50;72.40;;;;;;5006002;28;20392;-80
2022/06/07 08:08:46;;;;;;;0.55;0.55;;;20.80;72.30;;;;;;5008930;28;20388;-75
2022/06/07 08:11:14;;;;;;;2.67;0.73;;;20.90;68.10;;;;;;5004652;28;20125;-82
2022/06/07 08:13:39;;;;;;;0.75;0.50;;;20.90;70.00;;;;;;4994083;28;20424;-83
2022/06/07 08:16:06;;;;;;;1.48;0.52;;;21.10;68.10;;;;;;5008143;28;20018;-81
2022/06/07 08:18:32;;;;;;;0.52;0.52;;;21.10;66.40;;;;;;5009619;28;20026;-84
2022/06/07 08:21:00;;;;;;;1.25;0.80;;;21.00;65.20;;;;;;5013451;28;20086;-88
2022/06/07 08:23:28;;;;;;;0.68;0.60;;;20.90;68.10;;;;;;5008287;28;20033;-83
2022/06/07 08:25:55;;;;;;;0.50;0.50;;;21.00;66.50;;;;;;5012133;28;20550;-85
2022/06/07 08:28:24;;;;;;;0.95;0.63;;;21.40;65.80;;;;;;5002502;28;20033;-84
2022/06/07 08:30:52;;;;;;;0.50;0.50;;;21.80;67.00;;;;;;4995413;28;20115;-84
2022/06/07 08:39:02;;;;;;;0.43;0.43;;;22.10;60.10;;;;;;5008311;28;20124;-85
2022/06/07 08:41:43;;;;;;;1.27;0.90;;;22.00;60.70;;;;;;5003860;28;20022;-85
2022/06/07 08:44:26;;;;;;;0.82;0.82;;;21.90;61.40;;;;;;5008262;28;20029;-85
2022/06/07 08:46:57;;;;;;;0.70;0.70;;;21.90;62.60;;;;;;5010096;28;20125;-86
2022/06/07 08:49:23;;;;;;;0.75;0.75;;;21.90;61.90;;;;;;5006284;28;20046;-85
2022/06/07 08:52:03;;;;;;;1.08;0.60;;;21.80;62.30;;;;;;5008971;28;20081;-84
2022/06/07 08:54:32;;;;;;;0.60;0.60;;;21.80;62.30;;;;;;5120274;23;20055;-82
2022/06/07 08:57:15;;;;;;;2.72;1.45;;;21.60;64.00;;;;;;5063145;28;20033;-85
2022/06/07 08:59:43;;;;;;;1.10;0.70;;;21.50;64.40;;;;;;5066759;28;20051;-82
2022/06/07 09:02:31;;;;;;;2.42;0.52;;;21.70;64.60;;;;;;5068882;28;20055;-85
2022/06/07 09:04:59;;;;;;;0.63;0.63;;;21.60;64.80;;;;;;5070846;28;20499;-85
2022/06/07 09:07:28;;;;;;;0.60;0.60;;;21.70;63.70;;;;;;5071209;28;20025;-86
2022/06/07 09:13:15;;;;;;;0.60;0.60;;;22.00;61.70;;;;;;5066706;28;20036;-84
2022/06/07 09:15:42;;;;;;;0.68;0.50;;;21.90;60.60;;;;;;5069011;28;20052;-86
2022/06/07 09:18:10;;;;;;;0.60;0.50;;;21.80;60.60;;;;;;5067554;28;20098;-85
2022/06/07 09:20:48;;;;;;;0.40;0.40;;;21.90;60.20;;;;;;5061710;28;20032;-83
2022/06/07 09:23:36;;;;;;;0.50;0.50;;;22.20;61.90;;;;;;5066170;28;20028;-82
2022/06/07 09:26:27;;;;;;;0.50;0.50;;;22.20;61.00;;;;;;5067537;28;20021;-84
2022/06/07 09:29:12;;;;;;;0.50;0.50;;;22.30;59.70;;;;;;5066803;28;20035;-84
2022/06/07 09:31:43;;;;;;;0.60;0.55;;;22.20;60.20;;;;;;5070071;28;20095;-86
2022/06/07 09:34:23;;;;;;;1.25;0.70;;;22.10;60.90;;;;;;5070015;28;20119;-82
2022/06/07 09:36:57;;;;;;;0.52;0.52;;;22.20;60.20;;;;;;5073328;28;20028;-85
2022/06/07 09:39:39;;;;;;;3.28;0.50;;;22.30;61.10;;;;;;5063761;28;20025;-83
2022/06/07 09:42:16;;;;;;;4.72;0.80;;;22.30;61.60;;;;;;5069129;28;20032;-82
2022/06/07 09:45:11;;;;;;;1.23;0.80;;;22.20;60.80;;;;;;5065587;28;20073;-83
2022/06/07 09:47:37;;;;;;;0.50;0.50;;;22.20;60.40;;;;;;4991942;28;20030;-83
2022/06/07 09:50:20;;;;;;;0.50;0.50;;;22.40;61.90;;;;;;4995326;28;20527;-86
2022/06/07 09:52:55;;;;;;;0.52;0.52;;;22.60;60.70;;;;;;5059113;28;20059;-82
2022/06/07 09:55:44;;;;;;;0.80;0.80;;;22.40;60.50;;;;;;5079094;28;20044;-81
2022/06/07 09:58:44;;;;;;;0.63;0.60;;;22.70;61.20;;;;;;5079987;28;20055;-81
2022/06/07 10:01:22;;;;;;;0.60;0.60;;;22.60;60.60;;;;;;5081049;28;20035;-81
2022/06/07 10:03:56;;;;;;;0.50;0.50;;;22.60;60.30;;;;;;5078613;28;20051;-81
2022/06/07 10:06:51;;;;;;;0.80;0.80;;;23.00;61.00;;;;;;5080254;28;20113;-82
2022/06/07 10:09:31;;;;;;;0.70;0.70;;;23.30;60.30;;;;;;5077547;28;20024;-80
2022/06/07 10:12:10;;;;;;;0.80;0.80;;;23.00;58.90;;;;;;5076140;28;20028;-79
2022/06/07 10:14:54;;;;;;;0.65;0.65;;;23.10;58.80;;;;;;5080841;28;20060;-80
2022/06/07 10:17:42;;;;;;;0.55;0.55;;;23.00;58.80;;;;;;5080544;28;20036;-81
2022/06/07 10:20:22;;;;;;;3.17;1.00;;;22.70;59.50;;;;;;5079859;28;20112;-82
2022/06/07 10:23:17;;;;;;;1.02;0.93;;;22.80;58.70;;;;;;5080349;28;20027;-78
2022/06/07 10:26:27;;;;;;;2.08;1.00;;;22.70;59.00;;;;;;5080731;28;20079;-79
2022/06/07 10:29:16;;;;;;;1.40;0.80;;;22.80;58.60;;;;;;5081718;28;20044;-78
2022/06/07 10:31:51;;;;;;;1.95;1.45;;;23.20;59.70;;;;;;5078596;28;20046;-84
2022/06/07 10:34:30;;;;;;;0.98;0.85;;;23.30;59.00;;;;;;5080237;28;20043;-84
2022/06/07 10:37:25;;;;;;;0.95;0.80;;;23.40;59.70;;;;;;5080150;28;20016;-85
2022/06/07 10:40:15;;;;;;;0.75;0.75;;;23.50;58.30;;;;;;5081220;28;20647;-82
2022/06/07 10:42:56;;;;;;;0.95;0.88;;;23.80;57.80;;;;;;5078285;28;20029;-78
2022/06/07 10:45:38;;;;;;;0.60;0.60;;;23.50;57.70;;;;;;5078646;28;20494;-79
2022/06/07 10:48:29;;;;;;;1.20;1.10;;;23.30;57.40;;;;;;5079683;28;20448;-79
2022/06/07 10:54:18;;;;;;;0.95;0.82;;;23.30;57.60;;;;;;5040643;28;20512;-79
2022/06/07 10:56:55;;;;;;;0.80;0.80;;;23.60;57.80;;;;;;5079493;28;20146;-79
2022/06/07 10:59:22;;;;;;;0.60;0.60;;;23.60;56.30;;;;;;5079713;28;20024;-76
2022/06/07 11:01:55;;;;;;;1.20;0.75;;;23.60;57.00;;;;;;5079483;28;20029;-75
2022/06/07 11:10:29;;;;;;;0.88;0.80;;;23.50;56.70;;;;;;5078198;28;20502;-77
2022/06/07 11:13:09;;;;;;;1.05;0.77;;;23.20;57.10;;;;;;5080119;28;20047;-76
2022/06/07 11:15:44;;;;;;;0.60;0.60;;;23.30;57.10;;;;;;5079114;28;20721;-76
2022/06/07 11:18:15;;;;;;;0.60;0.60;;;23.80;57.30;;;;;;5060531;28;20031;-77
2022/06/07 11:21:12;;;;;;;0.70;0.70;;;24.20;55.30;;;;;;5075978;28;20090;-77
2022/06/07 11:23:41;;;;;;;0.50;0.50;;;24.70;55.40;;;;;;5070502;28;20150;-77
2022/06/07 11:26:14;;;;;;;0.50;0.50;;;24.50;54.10;;;;;;5089609;28;20027;-76
2022/06/07 11:28:39;;;;;;;0.60;0.57;;;24.40;52.20;;;;;;5084925;28;20039;-76
2022/06/07 11:31:41;;;;;;;0.52;0.52;;;24.00;54.90;;;;;;5079756;28;20024;-79
2022/06/07 11:34:29;;;;;;;1.65;0.60;;;23.90;56.00;;;;;;5070105;28;20051;-78
2022/06/07 11:37:10;;;;;;;1.20;0.70;;;24.00;57.00;;;;;;5068736;28;20507;-78
2022/06/07 11:39:38;;;;;;;2.03;0.75;;;24.10;54.90;;;;;;5076352;28;20028;-77
2022/06/07 11:42:07;;;;;;;0.60;0.60;;;24.40;53.70;;;;;;5073955;28;20035;-77
2022/06/07 11:45:01;;;;;;;0.70;0.70;;;24.00;53.80;;;;;;5081125;28;20031;-77
2022/06/07 11:47:33;;;;;;;1.55;1.05;;;23.80;55.30;;;;;;5065045;28;20150;-78
2022/06/07 11:50:00;;;;;;;;;;;23.70;54.30;;;;;;5078462;28;20028;-77
2022/06/07 11:52:29;;;;;;;0.50;0.50;;;23.30;52.80;;;;;;5081359;28;20356;-77
2022/06/07 11:55:17;;;;;;;1.33;0.80;;;23.10;53.60;;;;;;5070946;28;20101;-78
2022/06/07 11:58:03;;;;;;;0.50;0.50;;;23.10;52.30;;;;;;5081725;28;20310;-82
2022/06/07 12:00:29;;;;;;;2.60;0.60;;;23.20;52.30;;;;;;5074506;28;20378;-78
2022/06/07 12:03:23;;;;;;;0.57;0.57;;;23.50;52.80;;;;;;5077730;28;20027;-80
2022/06/07 12:05:53;;;;;;;0.47;0.47;;;24.10;51.60;;;;;;5078078;28;20031;-78
2022/06/07 12:08:40;;;;;;;0.70;0.70;;;24.60;51.60;;;;;;5085833;28;20024;-77
2022/06/07 12:11:20;;;;;;;0.65;0.65;;;24.90;50.50;;;;;;5084859;28;20074;-77
2022/06/07 12:13:54;;;;;;;0.85;0.60;;;24.90;50.30;;;;;;5086240;28;20093;-77
2022/06/07 12:16:37;;;;;;;0.47;0.47;;;25.10;50.90;;;;;;5090020;28;20501;-76
2022/06/07 12:19:20;;;;;;;0.70;0.70;;;25.30;49.30;;;;;;5078095;28;20382;-76
2022/06/07 12:21:54;;;;;;;0.63;0.63;;;26.10;50.80;;;;;;5078390;28;20106;-77
2022/06/07 12:24:21;;;;;;;0.60;0.60;;;26.90;45.80;;;;;;5077968;28;20035;-76
2022/06/07 12:26:47;;;;;;;0.95;0.73;;;27.10;44.50;;;;;;5078004;28;20020;-78
2022/06/07 12:29:21;;;;;;;0.63;0.63;;;26.60;45.50;;;;;;5078191;28;20026;-76
2022/06/07 12:32:05;;;;;;;0.60;0.60;;;26.70;48.00;;;;;;5078467;28;20151;-78
2022/06/07 12:34:34;;;;;;;0.98;0.60;;;26.00;48.00;;;;;;5077729;28;20553;-77
2022/06/07 12:37:11;;;;;;;0.75;0.75;;;25.00;47.90;;;;;;5077257;28;20039;-79
2022/06/07 12:39:45;;;;;;;0.60;0.60;;;24.60;49.20;;;;;;5077397;28;20023;-77
2022/06/07 12:42:15;;;;;;;0.50;0.50;;;24.50;49.20;;;;;;5077918;28;20029;-77
2022/06/07 12:44:49;;;;;;;0.93;0.60;;;24.70;49.80;;;;;;5077674;28;20029;-78
2022/06/07 12:47:27;;;;;;;0.40;0.40;;;24.90;48.20;;;;;;5075551;28;20016;-76
2022/06/07 12:49:54;;;;;;;0.50;0.50;;;25.00;48.00;;;;;;5076874;28;20013;-76
2022/06/07 12:52:26;;;;;;;0.43;0.43;;;25.30;48.00;;;;;;5077513;28;20471;-77
2022/06/07 12:55:01;;;;;;;0.50;0.50;;;25.20;49.20;;;;;;5080931;28;20052;-77
2022/06/07 12:57:30;;;;;;;0.63;0.57;;;25.40;47.40;;;;;;5080916;28;20032;-77
2022/06/07 13:00:03;;;;;;;0.52;0.52;;;25.40;47.30;;;;;;5062396;28;20033;-77
2022/06/07 13:02:41;;;;;;;0.47;0.47;;;25.10;48.10;;;;;;5080388;28;20035;-77
2022/06/07 13:05:19;;;;;;;0.60;0.50;;;25.00;48.50;;;;;;5080384;28;20168;-77
2022/06/07 13:07:47;;;;;;;2.08;0.70;;;26.10;46.50;;;;;;5081628;28;20035;-77
2022/06/07 13:10:20;;;;;;;1.67;0.80;;;27.10;44.80;;;;;;5080167;28;20113;-77
2022/06/07 13:12:52;;;;;;;0.93;0.60;;;28.50;43.20;;;;;;5081207;28;20016;-77
2022/06/07 13:15:22;;;;;;;0.40;0.40;;;29.10;40.70;;;;;;5080881;28;20032;-77
2022/06/07 13:18:04;;;;;;;0.40;0.40;;;31.80;39.70;;;;;;5081186;28;20028;-78
2022/06/07 13:20:34;;;;;;;0.43;0.43;;;33.30;37.20;;;;;;5080472;28;20494;-78
2022/06/07 13:23:00;;;;;;;0.50;0.50;;;34.90;34.70;;;;;;5081548;28;20028;-78
2022/06/07 13:25:29;;;;;;;1.23;0.75;;;33.70;34.10;;;;;;5081088;28;20082;-77
2022/06/07 13:28:05;;;;;;;0.40;0.40;;;31.30;36.40;;;;;;5081826;28;20016;-77
2022/06/07 13:30:33;;;;;;;1.38;0.80;;;29.40;38.20;;;;;;5078917;28;20040;-77
2022/06/07 13:33:26;;;;;;;0.60;0.60;;;28.10;40.00;;;;;;5080440;28;20046;-77
2022/06/07 13:35:58;;;;;;;0.52;0.52;;;27.10;42.50;;;;;;5082344;28;20032;-80